createdAt,value
2018-12-03T00:01:45.740Z,37.87
2018-12-03T00:04:22.869Z,37.53
2018-12-03T00:06:52.304Z,39.53
2018-12-03T00:09:21.811Z,39.93
2018-12-03T00:11:51.040Z,42.13
2018-12-03T00:14:20.243Z,41.50
2018-12-03T00:16:49.493Z,41.30
2018-12-03T00:19:18.707Z,39.70
2018-12-03T00:21:47.927Z,40.40
2018-12-03T00:24:17.153Z,42.77
2018-12-03T00:26:46.358Z,43.87
2018-12-03T00:29:15.595Z,42.80
2018-12-03T00:31:44.865Z,42.70
2018-12-03T00:34:14.099Z,44.70
2018-12-03T00:36:43.380Z,42.20
2018-12-03T00:39:12.623Z,42.60
2018-12-03T00:41:41.854Z,42.80
2018-12-03T00:44:11.133Z,41.93
2018-12-03T00:46:40.374Z,45.40
2018-12-03T00:49:09.565Z,43.93
2018-12-03T00:51:38.783Z,43.03
2018-12-03T00:54:08.059Z,44.23
2018-12-03T00:56:37.311Z,44.63
2018-12-03T00:59:06.981Z,44.53
2018-12-03T01:01:36.773Z,47.00
2018-12-03T01:04:06.276Z,44.07
2018-12-03T01:06:35.540Z,45.63
2018-12-03T01:09:07.299Z,45.20
2018-12-03T01:11:36.592Z,45.40
2018-12-03T01:14:06.456Z,44.77
2018-12-03T01:16:35.353Z,43.73
2018-12-03T01:19:04.813Z,43.40
2018-12-03T01:21:34.078Z,43.10
2018-12-03T01:24:03.340Z,43.70
2018-12-03T01:26:32.625Z,42.83
2018-12-03T01:29:01.866Z,42.90
2018-12-03T01:31:31.073Z,44.23
2018-12-03T01:34:00.288Z,45.03
2018-12-03T01:36:29.582Z,43.80
2018-12-03T01:38:58.811Z,43.97
2018-12-03T01:41:28.036Z,43.17
2018-12-03T01:43:57.331Z,44.90
2018-12-03T01:46:26.598Z,42.17
2018-12-03T01:48:55.787Z,43.43
2018-12-03T01:51:24.988Z,43.47
2018-12-03T01:53:54.308Z,43.53
2018-12-03T01:56:23.731Z,43.70
2018-12-03T01:58:52.941Z,41.80
2018-12-03T02:01:22.211Z,42.57
2018-12-03T02:03:51.488Z,41.23
2018-12-03T02:06:20.711Z,41.60
2018-12-03T02:08:49.933Z,41.33
2018-12-03T02:11:19.145Z,42.63
2018-12-03T02:13:48.348Z,40.97
2018-12-03T02:16:17.672Z,43.30
2018-12-03T02:18:46.932Z,41.07
2018-12-03T02:21:16.160Z,40.50
2018-12-03T02:23:45.397Z,40.63
2018-12-03T02:26:14.663Z,41.37
2018-12-03T02:28:43.889Z,40.40
2018-12-03T02:31:13.115Z,41.40
2018-12-03T02:33:42.369Z,40.13
2018-12-03T02:36:11.572Z,40.17
2018-12-03T02:38:40.874Z,38.93
2018-12-03T02:41:10.128Z,38.57
2018-12-03T02:43:39.377Z,39.80
2018-12-03T02:46:08.642Z,39.17
2018-12-03T02:48:37.903Z,41.30
2018-12-03T02:51:07.179Z,40.30
2018-12-03T02:53:36.446Z,39.27
2018-12-03T02:56:06.370Z,39.70
2018-12-03T02:58:35.588Z,39.80
2018-12-03T03:01:04.927Z,41.17
2018-12-03T03:03:34.191Z,39.77
2018-12-03T03:06:03.363Z,38.97
2018-12-03T03:08:32.794Z,39.87
2018-12-03T03:11:02.103Z,41.13
2018-12-03T03:13:31.321Z,39.70
2018-12-03T03:16:00.546Z,39.97
2018-12-03T03:18:29.796Z,39.33
2018-12-03T03:20:59.145Z,37.87
2018-12-03T03:23:28.396Z,38.27
2018-12-03T03:25:57.664Z,38.47
2018-12-03T03:28:26.821Z,38.50
2018-12-03T03:30:56.012Z,36.70
2018-12-03T03:33:25.411Z,38.93
2018-12-03T03:35:54.687Z,38.47
2018-12-03T03:38:23.902Z,37.67
2018-12-03T03:40:53.252Z,38.17
2018-12-03T03:43:22.529Z,37.73
2018-12-03T03:45:51.928Z,38.70
2018-12-03T03:48:21.155Z,38.60
2018-12-03T03:50:50.399Z,39.37
2018-12-03T03:53:19.571Z,38.60
2018-12-03T03:55:48.776Z,37.80
2018-12-03T03:58:18.034Z,37.63
2018-12-03T04:00:47.263Z,38.63
2018-12-03T04:03:16.579Z,35.10
2018-12-03T04:05:45.838Z,37.50
2018-12-03T04:08:15.066Z,37.33
2018-12-03T04:10:44.304Z,36.90
2018-12-03T04:13:13.585Z,36.33
2018-12-03T04:15:43.038Z,37.83
2018-12-03T04:18:12.262Z,35.80
2018-12-03T04:20:41.576Z,39.60
2018-12-03T04:23:10.929Z,39.33
2018-12-03T04:25:40.154Z,38.13
2018-12-03T04:28:09.446Z,38.37
2018-12-03T04:30:38.725Z,38.77
2018-12-03T04:33:08.005Z,38.90
2018-12-03T04:35:37.271Z,39.30
2018-12-03T04:38:06.561Z,38.63
2018-12-03T04:40:35.771Z,38.63
2018-12-03T04:43:05.277Z,39.50
2018-12-03T04:45:34.563Z,42.53
2018-12-03T04:48:03.893Z,42.40
2018-12-03T04:50:33.249Z,41.13
2018-12-03T04:53:02.518Z,40.37
2018-12-03T04:55:31.732Z,41.70
2018-12-03T04:58:01.096Z,39.00
2018-12-03T05:00:30.372Z,39.43
2018-12-03T05:02:59.601Z,38.10
2018-12-03T05:05:28.749Z,38.70
2018-12-03T05:07:57.946Z,38.67
2018-12-03T05:10:27.313Z,38.80
2018-12-03T05:12:56.604Z,38.83
2018-12-03T05:15:25.868Z,39.90
2018-12-03T05:17:55.096Z,38.23
2018-12-03T05:20:25.666Z,38.40
2018-12-03T05:22:54.862Z,38.53
2018-12-03T05:25:24.038Z,37.67
2018-12-03T05:27:53.331Z,37.77
2018-12-03T05:30:22.606Z,37.40
2018-12-03T05:32:51.897Z,37.93
2018-12-03T05:35:25.716Z,36.33
2018-12-03T05:37:54.993Z,38.17
2018-12-03T05:40:26.768Z,37.23
2018-12-03T05:42:56.076Z,37.50
2018-12-03T05:45:25.260Z,36.03
2018-12-03T05:47:54.518Z,36.83
2018-12-03T05:50:23.759Z,35.73
2018-12-03T05:52:52.964Z,36.27
2018-12-03T05:55:22.206Z,36.27
2018-12-03T05:57:51.389Z,35.53
2018-12-03T06:00:22.493Z,34.93
2018-12-03T06:02:51.724Z,35.07
2018-12-03T06:05:20.988Z,34.47
2018-12-03T06:07:50.202Z,34.90
2018-12-03T06:10:22.073Z,34.23
2018-12-03T06:12:51.277Z,35.53
2018-12-03T06:15:21.321Z,35.23
2018-12-03T06:17:51.945Z,34.60
2018-12-03T06:20:22.008Z,33.77
2018-12-03T06:22:52.442Z,37.10
2018-12-03T06:25:24.184Z,35.47
2018-12-03T06:27:53.460Z,34.77
2018-12-03T06:30:23.918Z,33.40
2018-12-03T06:32:53.287Z,36.10
2018-12-03T06:35:22.635Z,34.07
2018-12-03T06:37:52.222Z,35.97
2018-12-03T06:40:27.593Z,36.73
2018-12-03T06:42:56.964Z,36.83
2018-12-03T06:45:26.680Z,41.50
2018-12-03T06:48:02.064Z,39.20
2018-12-03T06:50:31.340Z,38.57
2018-12-03T06:53:00.549Z,38.97
2018-12-03T06:55:29.806Z,40.40
2018-12-03T06:57:58.986Z,38.73
2018-12-03T07:00:28.258Z,42.00
2018-12-03T07:02:57.511Z,37.23
2018-12-03T07:05:26.698Z,38.07
2018-12-03T07:07:57.627Z,39.67
2018-12-03T07:10:27.015Z,38.67
2018-12-03T07:13:02.940Z,40.17
2018-12-03T07:15:34.064Z,39.63
2018-12-03T07:18:06.186Z,38.70
2018-12-03T07:20:35.319Z,38.70
2018-12-03T07:23:04.760Z,38.27
2018-12-03T07:25:34.113Z,37.40
2018-12-03T07:28:03.248Z,38.53
2018-12-03T07:30:32.497Z,36.37
2018-12-03T07:33:01.639Z,38.17
2018-12-03T07:35:30.924Z,37.67
2018-12-03T07:38:00.119Z,37.93
2018-12-03T07:40:29.412Z,38.27
2018-12-03T07:42:58.616Z,39.33
2018-12-03T07:45:27.875Z,38.83
2018-12-03T07:47:57.111Z,39.13
2018-12-03T07:50:26.403Z,38.83
2018-12-03T07:52:55.602Z,40.63
2018-12-03T07:55:25.964Z,39.00
2018-12-03T07:57:59.671Z,40.23
2018-12-03T08:00:31.424Z,38.80
2018-12-03T08:03:00.634Z,38.57
2018-12-03T08:05:29.818Z,38.50
2018-12-03T08:07:59.068Z,38.30
2018-12-03T08:10:28.273Z,40.77
2018-12-03T08:12:57.483Z,37.87
2018-12-03T08:15:26.670Z,37.90
2018-12-03T08:18:03.927Z,36.53
2018-12-03T08:20:42.833Z,39.67
2018-12-03T08:23:15.201Z,38.83
2018-12-03T08:25:44.481Z,36.43
2018-12-03T08:28:13.719Z,39.53
2018-12-03T08:30:42.875Z,38.67
2018-12-03T08:33:12.060Z,37.63
2018-12-03T08:35:41.332Z,37.40
2018-12-03T08:38:10.541Z,36.73
2018-12-03T08:40:39.818Z,38.17
2018-12-03T08:43:09.021Z,37.00
2018-12-03T08:45:38.264Z,36.67
2018-12-03T08:48:07.759Z,36.97
2018-12-03T08:50:40.357Z,36.53
2018-12-03T08:53:10.938Z,35.73
2018-12-03T08:55:40.376Z,37.53
2018-12-03T08:58:13.720Z,37.83
2018-12-03T09:00:43.970Z,36.67
2018-12-03T09:03:19.707Z,35.63
2018-12-03T09:05:48.921Z,36.97
2018-12-03T09:08:18.191Z,35.10
2018-12-03T09:10:47.482Z,36.43
2018-12-03T09:13:18.925Z,38.03
2018-12-03T09:16:02.645Z,35.53
2018-12-03T09:18:35.708Z,34.33
2018-12-03T09:21:10.011Z,39.00
2018-12-03T09:23:39.532Z,34.70
2018-12-03T09:26:09.643Z,34.90
2018-12-03T09:28:38.886Z,35.37
2018-12-03T09:31:37.981Z,37.40
2018-12-03T09:34:07.155Z,33.60
2018-12-03T09:36:36.503Z,34.70
2018-12-03T09:39:13.540Z,33.90
2018-12-03T09:41:43.215Z,39.13
2018-12-03T09:44:12.407Z,41.27
2018-12-03T09:46:41.824Z,35.60
2018-12-03T09:49:10.993Z,37.43
2018-12-03T09:51:40.174Z,37.53
2018-12-03T09:54:11.108Z,40.30
2018-12-03T09:56:47.040Z,35.03
2018-12-03T09:59:19.766Z,35.97
2018-12-03T10:01:50.799Z,34.40
2018-12-03T10:04:27.547Z,37.93
2018-12-03T10:06:56.952Z,42.80
2018-12-03T10:09:26.280Z,41.00
2018-12-03T10:11:59.947Z,37.97
2018-12-03T10:14:29.346Z,38.03
2018-12-03T10:16:58.755Z,39.83
2018-12-03T10:19:28.456Z,41.07
2018-12-03T10:21:57.974Z,40.07
2018-12-03T10:24:27.613Z,39.27
2018-12-03T10:26:57.037Z,34.90
2018-12-03T10:29:26.478Z,33.83
2018-12-03T10:31:55.843Z,42.23
2018-12-03T10:34:25.196Z,38.03
2018-12-03T10:36:57.051Z,36.80
2018-12-03T10:39:30.340Z,40.17
2018-12-03T10:42:17.663Z,37.00
2018-12-03T10:44:47.729Z,35.73
2018-12-03T10:47:17.420Z,33.70
2018-12-03T10:49:46.788Z,38.83
2018-12-03T10:52:21.801Z,32.20
2018-12-03T10:54:51.251Z,36.43
2018-12-03T10:57:21.259Z,34.03
2018-12-03T10:59:53.124Z,39.27
2018-12-03T11:02:37.661Z,39.43
2018-12-03T11:05:13.630Z,36.40
2018-12-03T11:07:43.156Z,39.50
2018-12-03T11:10:12.824Z,37.80
2018-12-03T11:12:42.203Z,38.77
2018-12-03T11:15:14.975Z,35.23
2018-12-03T11:17:44.530Z,31.70
2018-12-03T11:20:14.112Z,42.40
2018-12-03T11:22:43.886Z,37.13
2018-12-03T11:25:16.180Z,35.03
2018-12-03T11:27:48.308Z,37.33
2018-12-03T11:30:18.370Z,36.90
2018-12-03T11:32:47.955Z,31.60
2018-12-03T11:35:25.519Z,35.67
2018-12-03T11:38:01.343Z,33.73
2018-12-03T11:40:43.301Z,37.27
2018-12-03T11:43:12.802Z,36.67
2018-12-03T11:45:42.234Z,38.60
2018-12-03T11:48:11.665Z,45.37
2018-12-03T11:50:41.219Z,46.63
2018-12-03T11:53:10.688Z,54.83
2018-12-03T11:55:40.083Z,56.90
2018-12-03T11:58:09.440Z,48.70
2018-12-03T12:00:38.882Z,50.17
2018-12-03T12:03:08.256Z,50.77
2018-12-03T12:05:37.616Z,47.37
2018-12-03T12:08:07.084Z,46.23
2018-12-03T12:10:36.495Z,45.23
2018-12-03T12:13:06.106Z,43.13
2018-12-03T12:15:35.539Z,42.50
2018-12-03T12:18:05.163Z,42.13
2018-12-03T12:20:34.815Z,41.20
2018-12-03T12:23:04.194Z,40.27
2018-12-03T12:25:33.621Z,39.20
2018-12-03T12:28:03.024Z,37.80
2018-12-03T12:30:32.431Z,38.27
2018-12-03T12:33:01.847Z,37.00
2018-12-03T12:35:31.206Z,36.83
2018-12-03T12:38:00.519Z,36.83
2018-12-03T12:40:29.879Z,37.50
2018-12-03T12:42:59.205Z,36.90
2018-12-03T12:45:34.606Z,34.97
2018-12-03T12:48:03.986Z,34.53
2018-12-03T12:50:33.472Z,32.70
2018-12-03T12:53:02.873Z,35.27
2018-12-03T12:55:32.252Z,36.40
2018-12-03T12:58:01.723Z,34.20
2018-12-03T13:00:31.123Z,32.03
2018-12-03T13:03:00.476Z,32.10
2018-12-03T13:05:29.840Z,33.67
2018-12-03T13:08:02.144Z,33.60
2018-12-03T13:10:31.579Z,32.63
2018-12-03T13:13:01.011Z,31.40
2018-12-03T13:15:30.560Z,31.93
2018-12-03T13:17:59.788Z,32.30
2018-12-03T13:20:28.980Z,33.00
2018-12-03T13:22:58.202Z,31.33
2018-12-03T13:25:27.409Z,30.13
2018-12-03T13:27:56.599Z,32.40
2018-12-03T13:30:25.860Z,29.40
2018-12-03T13:32:55.005Z,29.13
2018-12-03T13:35:24.165Z,28.73
2018-12-03T13:37:53.355Z,29.50
2018-12-03T13:40:22.522Z,29.97
2018-12-03T13:42:51.730Z,28.83
2018-12-03T13:52:13.246Z,27.73
2018-12-03T13:54:42.485Z,26.13
2018-12-03T13:57:11.696Z,28.27
2018-12-03T13:59:40.870Z,26.97
2018-12-03T14:02:10.408Z,26.13
2018-12-03T14:04:41.124Z,26.07
2018-12-03T14:07:38.408Z,24.40
2018-12-03T14:10:27.598Z,25.70
2018-12-03T14:13:04.967Z,24.93
2018-12-03T14:17:47.084Z,23.90
2018-12-03T14:20:16.389Z,22.67
2018-12-03T14:22:51.153Z,24.13
2018-12-03T14:25:20.294Z,23.97
2018-12-03T14:27:49.476Z,27.17
2018-12-03T14:30:18.838Z,32.20
2018-12-03T14:32:49.364Z,38.30
2018-12-03T14:35:18.660Z,42.93
2018-12-03T14:37:47.876Z,39.97
2018-12-03T14:40:17.288Z,40.57
2018-12-03T14:42:46.498Z,37.73
2018-12-03T14:45:15.763Z,39.93
2018-12-03T14:47:45.565Z,44.87
2018-12-03T14:50:15.494Z,45.43
2018-12-03T14:52:44.993Z,47.20
2018-12-03T14:55:14.219Z,48.60
2018-12-03T14:57:43.415Z,47.80
2018-12-03T15:00:14.515Z,48.70
2018-12-03T15:02:43.932Z,48.00
2018-12-03T15:05:13.162Z,48.27
2018-12-03T15:07:42.344Z,48.73
2018-12-03T15:10:11.651Z,49.50
2018-12-03T15:12:40.750Z,48.73
2018-12-03T15:15:11.183Z,47.40
2018-12-03T15:17:42.294Z,48.17
2018-12-03T15:20:11.637Z,47.27
2018-12-03T15:22:40.895Z,46.07
2018-12-03T15:25:12.461Z,43.53
2018-12-03T15:27:41.662Z,43.27
2018-12-03T15:30:11.842Z,41.97
2018-12-03T15:32:40.987Z,40.97
2018-12-03T15:35:11.352Z,41.70
2018-12-03T15:37:40.599Z,43.80
2018-12-03T15:40:13.196Z,44.03
2018-12-03T15:42:42.395Z,45.17
2018-12-03T15:45:13.329Z,48.20
2018-12-03T15:47:42.815Z,47.97
2018-12-03T15:50:11.935Z,49.60
2018-12-03T15:52:41.316Z,49.60
2018-12-03T15:55:10.542Z,48.30
2018-12-03T15:57:39.728Z,49.67
2018-12-03T16:00:13.124Z,50.33
2018-12-03T16:02:42.581Z,55.90
2018-12-03T16:05:15.823Z,57.77
2018-12-03T16:07:45.047Z,56.83
2018-12-03T16:10:15.176Z,57.43
2018-12-03T16:12:45.443Z,59.53
2018-12-03T16:15:14.669Z,55.10
2018-12-03T16:17:43.959Z,53.90
2018-12-03T16:20:13.379Z,52.90
2018-12-03T16:22:42.591Z,50.33
2018-12-03T16:25:11.923Z,50.40
2018-12-03T16:27:41.104Z,46.77
2018-12-03T16:30:15.083Z,51.23
2018-12-03T16:32:44.359Z,49.20
2018-12-03T16:35:13.607Z,48.73
2018-12-03T16:37:42.763Z,47.57
2018-12-03T16:40:11.932Z,43.87
2018-12-03T16:42:41.158Z,45.13
2018-12-03T16:45:10.651Z,43.70
2018-12-03T16:47:39.826Z,40.90
2018-12-03T16:50:10.392Z,42.67
2018-12-03T16:52:39.711Z,41.60
2018-12-03T16:55:09.168Z,40.93
2018-12-03T16:57:38.421Z,42.40
2018-12-03T17:00:11.903Z,46.43
2018-12-03T17:02:41.086Z,50.57
2018-12-03T17:05:10.424Z,50.13
2018-12-03T17:07:39.787Z,52.50
2018-12-03T17:10:12.460Z,50.43
2018-12-03T17:12:41.626Z,50.87
2018-12-03T17:15:10.867Z,50.30
2018-12-03T17:17:40.039Z,51.90
2018-12-03T17:20:17.709Z,48.67
2018-12-03T17:22:59.291Z,47.23
2018-12-03T17:25:28.533Z,46.00
2018-12-03T17:27:57.724Z,44.03
2018-12-03T17:30:26.994Z,42.37
2018-12-03T17:32:56.247Z,41.97
2018-12-03T17:35:26.791Z,42.83
2018-12-03T17:37:56.754Z,43.70
2018-12-03T17:40:26.143Z,43.67
2018-12-03T17:42:55.373Z,40.07
2018-12-03T17:45:24.563Z,42.03
2018-12-03T17:47:53.913Z,40.60
2018-12-03T17:50:23.843Z,42.40
2018-12-03T17:52:53.127Z,42.77
2018-12-03T17:55:22.435Z,40.97
2018-12-03T17:57:51.735Z,42.70
2018-12-03T18:00:21.043Z,42.60
2018-12-03T18:02:50.256Z,40.57
2018-12-03T18:05:19.451Z,40.47
2018-12-03T18:07:48.832Z,38.57
2018-12-03T18:10:27.952Z,39.13
2018-12-03T18:12:57.239Z,38.07
2018-12-03T18:15:26.367Z,38.57
2018-12-03T18:17:55.610Z,39.87
2018-12-03T18:20:24.779Z,37.40
2018-12-03T18:22:53.937Z,37.57
2018-12-03T18:25:23.226Z,37.20
2018-12-03T18:27:52.520Z,37.17
2018-12-03T18:30:21.928Z,37.20
2018-12-03T18:32:51.080Z,35.27
2018-12-03T18:35:20.395Z,35.97
2018-12-03T18:37:49.531Z,35.30
2018-12-03T18:40:18.767Z,36.37
2018-12-03T18:42:48.039Z,34.90
2018-12-03T18:45:17.233Z,39.53
2018-12-03T18:47:46.708Z,41.63
2018-12-03T18:50:22.136Z,45.90
2018-12-03T18:52:51.411Z,48.20
2018-12-03T18:55:20.660Z,50.00
2018-12-03T18:57:54.460Z,52.50
2018-12-03T19:00:23.644Z,51.47
2018-12-03T19:02:53.043Z,53.30
2018-12-03T19:05:22.264Z,52.70
2018-12-03T19:07:51.762Z,51.87
2018-12-03T19:10:20.978Z,51.23
2018-12-03T19:12:50.399Z,50.43
2018-12-03T19:15:19.961Z,49.80
2018-12-03T19:17:49.201Z,48.17
2018-12-03T19:20:18.581Z,45.77
2018-12-03T19:22:48.142Z,46.43
2018-12-03T19:25:17.361Z,50.13
2018-12-03T19:27:46.712Z,50.90
2018-12-03T19:30:16.291Z,52.63
2018-12-03T19:32:45.691Z,51.47
2018-12-03T19:35:14.942Z,50.63
2018-12-03T19:37:44.273Z,50.20
2018-12-03T19:40:13.584Z,50.93
2018-12-03T19:42:42.863Z,49.40
2018-12-03T19:45:12.123Z,48.67
2018-12-03T19:47:41.282Z,50.17
2018-12-03T19:50:10.571Z,47.20
2018-12-03T19:52:41.062Z,48.97
2018-12-03T19:55:12.548Z,49.13
2018-12-03T19:57:42.311Z,47.80
2018-12-03T20:00:13.654Z,45.87
2018-12-03T20:02:42.936Z,48.53
2018-12-03T20:05:19.279Z,47.60
2018-12-03T20:07:48.596Z,46.10
2018-12-03T20:10:18.059Z,44.60
2018-12-03T20:12:47.402Z,45.27
2018-12-03T20:15:16.878Z,45.03
2018-12-03T20:17:46.377Z,45.20
2018-12-03T20:20:19.599Z,44.07
2018-12-03T20:22:59.507Z,45.00
2018-12-03T20:25:34.875Z,43.67
2018-12-03T20:28:09.597Z,44.27
2018-12-03T20:31:20.456Z,43.53
2018-12-03T20:35:00.021Z,44.53
2018-12-03T20:37:44.912Z,41.97
2018-12-03T20:40:21.211Z,42.00
2018-12-03T20:42:56.159Z,41.83
2018-12-03T20:45:38.822Z,43.27
2018-12-03T20:48:08.433Z,42.37
2018-12-03T20:50:50.626Z,44.57
2018-12-03T20:53:26.881Z,42.57
2018-12-03T20:55:57.542Z,43.00
2018-12-03T20:58:27.487Z,40.93
2018-12-03T21:00:57.269Z,41.67
2018-12-03T21:03:27.042Z,40.63
2018-12-03T21:05:56.578Z,41.03
2018-12-03T21:08:25.815Z,42.20
2018-12-03T21:10:55.017Z,43.43
2018-12-03T21:13:24.363Z,43.73
2018-12-03T21:15:54.070Z,43.47
2018-12-03T21:18:23.645Z,42.73
2018-12-03T21:20:52.937Z,44.40
2018-12-03T21:23:22.260Z,49.40
2018-12-03T21:25:51.544Z,48.37
2018-12-03T21:28:20.969Z,52.47
2018-12-03T21:30:56.935Z,53.20
2018-12-03T21:33:26.225Z,52.60
2018-12-03T21:35:55.514Z,52.27
2018-12-03T21:38:24.865Z,52.93
2018-12-03T21:40:56.021Z,50.23
2018-12-03T21:43:25.420Z,51.27
2018-12-03T21:45:54.895Z,50.97
2018-12-03T21:48:24.316Z,50.13
2018-12-03T21:50:53.631Z,51.33
2018-12-03T21:53:22.843Z,48.87
2018-12-03T21:55:52.305Z,46.80
2018-12-03T21:58:21.518Z,47.20
2018-12-03T22:00:50.711Z,42.83
2018-12-03T22:03:19.972Z,48.40
2018-12-03T22:05:49.112Z,46.43
2018-12-03T22:08:18.339Z,45.10
2018-12-03T22:10:47.575Z,45.27
2018-12-03T22:13:16.804Z,44.13
2018-12-03T22:15:46.007Z,42.07
2018-12-03T22:18:15.199Z,41.60
2018-12-03T22:20:44.378Z,41.33
2018-12-03T22:23:13.664Z,41.87
2018-12-03T22:25:49.563Z,41.70
2018-12-03T22:28:18.759Z,42.23
2018-12-03T22:30:47.936Z,40.30
2018-12-03T22:33:17.167Z,43.03
2018-12-03T22:35:46.341Z,42.53
2018-12-03T22:38:15.565Z,42.97
2018-12-03T22:40:44.773Z,41.37
2018-12-03T22:43:13.972Z,38.67
2018-12-03T22:45:43.300Z,38.03
2018-12-03T22:48:13.587Z,40.40
2018-12-03T22:50:42.759Z,41.33
2018-12-03T22:53:11.983Z,36.10
2018-12-03T22:55:41.135Z,38.23
2018-12-03T22:58:10.532Z,36.33
2018-12-03T23:00:40.056Z,37.57
2018-12-03T23:03:09.283Z,38.60
2018-12-03T23:05:38.520Z,39.73
2018-12-03T23:08:07.726Z,37.17
2018-12-03T23:10:36.856Z,38.80
2018-12-03T23:13:06.205Z,38.33
2018-12-03T23:15:35.574Z,36.37
2018-12-03T23:18:04.755Z,37.67
2018-12-03T23:20:33.991Z,36.30
2018-12-03T23:23:03.132Z,38.37
2018-12-03T23:25:32.410Z,35.97
2018-12-03T23:28:01.720Z,35.70
2018-12-03T23:30:30.891Z,35.90
2018-12-03T23:33:00.078Z,35.30
2018-12-03T23:35:29.355Z,35.37
2018-12-03T23:37:58.620Z,35.43
2018-12-03T23:40:27.775Z,34.23
2018-12-03T23:42:57.027Z,35.07
2018-12-03T23:45:27.539Z,33.70
2018-12-03T23:47:56.773Z,33.57
2018-12-03T23:50:26.088Z,35.13
2018-12-03T23:52:56.543Z,37.70
2018-12-03T23:55:25.842Z,35.33
2018-12-03T23:57:55.323Z,34.63
